sensor_id;sensor_type;location;lat;lon;timestamp;pressure;altitude;pressure_sealevel;temperature;humidity
29247;BME280;16272;48.188;9.964;2023-04-25T00:01:11;95188.91;;;7.96;67.58
29247;BME280;16272;48.188;9.964;2023-04-25T00:03:38;95189.94;;;7.85;68.95
29247;BME280;16272;48.188;9.964;2023-04-25T00:06:04;95183.38;;;7.71;69.41
29247;BME280;16272;48.188;9.964;2023-04-25T00:08:30;95197.44;;;7.89;68.11
29247;BME280;16272;48.188;9.964;2023-04-25T00:10:56;95178.41;;;8.04;67.40
29247;BME280;16272;48.188;9.964;2023-04-25T00:13:22;95193.25;;;7.87;67.46
29247;BME280;16272;48.188;9.964;2023-04-25T00:15:47;95189.94;;;8.21;66.22
29247;BME280;16272;48.188;9.964;2023-04-25T00:18:13;95175.22;;;8.18;66.00
29247;BME280;16272;48.188;9.964;2023-04-25T00:20:40;95175.44;;;7.71;66.87
29247;BME280;16272;48.188;9.964;2023-04-25T00:23:05;95169.78;;;7.84;68.52
29247;BME280;16272;48.188;9.964;2023-04-25T00:25:30;95176.50;;;7.96;69.83
29247;BME280;16272;48.188;9.964;2023-04-25T00:27:56;95171.88;;;7.80;69.61
29247;BME280;16272;48.188;9.964;2023-04-25T00:30:21;95178.84;;;7.81;69.50
29247;BME280;16272;48.188;9.964;2023-04-25T00:32:46;95185.81;;;7.82;68.86
29247;BME280;16272;48.188;9.964;2023-04-25T00:35:12;95176.72;;;8.03;67.65
29247;BME280;16272;48.188;9.964;2023-04-25T00:37:37;95168.88;;;8.11;66.33
29247;BME280;16272;48.188;9.964;2023-04-25T00:40:05;95168.78;;;7.67;68.01
29247;BME280;16272;48.188;9.964;2023-04-25T00:42:31;95174.06;;;7.67;71.29
29247;BME280;16272;48.188;9.964;2023-04-25T00:44:58;95176.63;;;7.59;71.29
29247;BME280;16272;48.188;9.964;2023-04-25T00:47:24;95185.22;;;7.61;70.57
29247;BME280;16272;48.188;9.964;2023-04-25T00:49:50;95170.03;;;7.90;68.95
29247;BME280;16272;48.188;9.964;2023-04-25T00:52:15;95168.28;;;8.17;67.65
29247;BME280;16272;48.188;9.964;2023-04-25T00:54:40;95159.66;;;8.15;67.02
29247;BME280;16272;48.188;9.964;2023-04-25T00:57:06;95159.00;;;8.39;65.84
29247;BME280;16272;48.188;9.964;2023-04-25T00:59:31;95153.00;;;8.47;65.35
29247;BME280;16272;48.188;9.964;2023-04-25T01:01:57;95161.00;;;8.37;65.98
29247;BME280;16272;48.188;9.964;2023-04-25T01:04:23;95166.91;;;8.13;66.83
29247;BME280;16272;48.188;9.964;2023-04-25T01:06:48;95172.53;;;8.10;67.64
29247;BME280;16272;48.188;9.964;2023-04-25T01:09:14;95174.09;;;7.85;69.01
29247;BME280;16272;48.188;9.964;2023-04-25T01:11:39;95171.16;;;8.06;68.79
29247;BME280;16272;48.188;9.964;2023-04-25T01:14:05;95172.44;;;8.02;68.41
29247;BME280;16272;48.188;9.964;2023-04-25T01:16:32;95179.75;;;8.08;67.85
29247;BME280;16272;48.188;9.964;2023-04-25T01:18:59;95184.13;;;7.81;67.98
29247;BME280;16272;48.188;9.964;2023-04-25T01:21:24;95195.59;;;7.16;70.33
29247;BME280;16272;48.188;9.964;2023-04-25T01:23:53;95182.16;;;7.38;70.55
29247;BME280;16272;48.188;9.964;2023-04-25T01:26:19;95171.69;;;7.18;70.48
29247;BME280;16272;48.188;9.964;2023-04-25T01:28:46;95163.53;;;7.39;70.48
29247;BME280;16272;48.188;9.964;2023-04-25T01:31:12;95148.00;;;7.72;69.63
29247;BME280;16272;48.188;9.964;2023-04-25T01:33:38;95130.81;;;8.04;66.91
29247;BME280;16272;48.188;9.964;2023-04-25T01:36:03;95139.28;;;7.89;67.28
29247;BME280;16272;48.188;9.964;2023-04-25T01:38:29;95146.97;;;7.65;69.06
29247;BME280;16272;48.188;9.964;2023-04-25T01:40:55;95154.50;;;7.60;68.89
29247;BME280;16272;48.188;9.964;2023-04-25T01:43:21;95148.56;;;7.58;69.59
29247;BME280;16272;48.188;9.964;2023-04-25T01:45:48;95141.81;;;7.45;69.79
29247;BME280;16272;48.188;9.964;2023-04-25T01:48:14;95140.78;;;7.74;69.83
29247;BME280;16272;48.188;9.964;2023-04-25T01:50:40;95139.56;;;7.68;70.33
29247;BME280;16272;48.188;9.964;2023-04-25T01:53:06;95134.66;;;7.28;69.01
29247;BME280;16272;48.188;9.964;2023-04-25T01:55:31;95131.09;;;7.65;69.40
29247;BME280;16272;48.188;9.964;2023-04-25T01:57:56;95130.88;;;7.12;71.28
29247;BME280;16272;48.188;9.964;2023-04-25T02:00:22;95133.69;;;7.29;72.67
29247;BME280;16272;48.188;9.964;2023-04-25T02:02:48;95138.88;;;7.21;72.76
29247;BME280;16272;48.188;9.964;2023-04-25T02:05:13;95140.22;;;7.07;72.34
29247;BME280;16272;48.188;9.964;2023-04-25T02:07:39;95138.09;;;7.10;73.28
29247;BME280;16272;48.188;9.964;2023-04-25T02:10:04;95135.66;;;6.99;73.73
29247;BME280;16272;48.188;9.964;2023-04-25T02:12:30;95136.31;;;6.73;73.16
29247;BME280;16272;48.188;9.964;2023-04-25T02:14:56;95131.81;;;6.84;73.29
29247;BME280;16272;48.188;9.964;2023-04-25T02:17:21;95136.75;;;6.96;72.95
29247;BME280;16272;48.188;9.964;2023-04-25T02:19:47;95138.19;;;6.91;72.26
29247;BME280;16272;48.188;9.964;2023-04-25T02:22:12;95141.06;;;6.60;73.57
29247;BME280;16272;48.188;9.964;2023-04-25T02:24:38;95146.72;;;7.12;71.54
29247;BME280;16272;48.188;9.964;2023-04-25T02:27:03;95137.63;;;6.97;70.87
29247;BME280;16272;48.188;9.964;2023-04-25T02:29:29;95140.78;;;7.01;70.68
29247;BME280;16272;48.188;9.964;2023-04-25T02:31:55;95139.47;;;7.14;69.99
29247;BME280;16272;48.188;9.964;2023-04-25T02:34:20;95140.50;;;7.31;69.09
29247;BME280;16272;48.188;9.964;2023-04-25T02:36:45;95129.69;;;7.25;68.83
29247;BME280;16272;48.188;9.964;2023-04-25T02:39:11;95129.56;;;7.16;69.52
29247;BME280;16272;48.188;9.964;2023-04-25T02:41:36;95130.28;;;7.18;68.71
29247;BME280;16272;48.188;9.964;2023-04-25T02:44:01;95137.91;;;7.49;68.49
29247;BME280;16272;48.188;9.964;2023-04-25T02:46:27;95135.25;;;7.49;67.92
29247;BME280;16272;48.188;9.964;2023-04-25T02:48:52;95133.22;;;7.15;68.29
29247;BME280;16272;48.188;9.964;2023-04-25T02:51:18;95131.97;;;7.38;67.64
29247;BME280;16272;48.188;9.964;2023-04-25T02:53:43;95130.00;;;7.22;68.24
29247;BME280;16272;48.188;9.964;2023-04-25T02:56:09;95120.00;;;7.61;67.87
29247;BME280;16272;48.188;9.964;2023-04-25T02:58:34;95120.00;;;7.61;67.60
29247;BME280;16272;48.188;9.964;2023-04-25T03:01:00;95117.06;;;7.64;67.18
29247;BME280;16272;48.188;9.964;2023-04-25T03:03:25;95124.34;;;7.52;68.37
29247;BME280;16272;48.188;9.964;2023-04-25T03:05:51;95122.28;;;7.56;68.77
29247;BME280;16272;48.188;9.964;2023-04-25T03:08:17;95115.53;;;7.62;68.05
29247;BME280;16272;48.188;9.964;2023-04-25T03:10:43;95121.25;;;7.39;67.99
29247;BME280;16272;48.188;9.964;2023-04-25T03:13:09;95109.38;;;7.71;67.47
29247;BME280;16272;48.188;9.964;2023-04-25T03:15:35;95116.28;;;7.54;68.99
29247;BME280;16272;48.188;9.964;2023-04-25T03:18:00;95112.97;;;7.70;67.35
29247;BME280;16272;48.188;9.964;2023-04-25T03:20:26;95113.19;;;7.59;68.16
29247;BME280;16272;48.188;9.964;2023-04-25T03:22:51;95121.22;;;7.67;68.64
29247;BME280;16272;48.188;9.964;2023-04-25T03:25:16;95127.16;;;7.69;67.69
29247;BME280;16272;48.188;9.964;2023-04-25T03:27:42;95126.19;;;7.70;68.02
29247;BME280;16272;48.188;9.964;2023-04-25T03:30:07;95131.19;;;7.27;69.22
29247;BME280;16272;48.188;9.964;2023-04-25T03:32:34;95131.94;;;7.20;70.27
29247;BME280;16272;48.188;9.964;2023-04-25T03:34:59;95133.53;;;7.03;71.04
29247;BME280;16272;48.188;9.964;2023-04-25T03:37:25;95128.91;;;7.14;69.65
29247;BME280;16272;48.188;9.964;2023-04-25T03:39:50;95128.50;;;7.37;70.02
29247;BME280;16272;48.188;9.964;2023-04-25T03:42:16;95122.75;;;7.24;70.31
29247;BME280;16272;48.188;9.964;2023-04-25T03:44:41;95125.78;;;7.29;69.91
29247;BME280;16272;48.188;9.964;2023-04-25T03:47:06;95121.88;;;7.33;69.29
29247;BME280;16272;48.188;9.964;2023-04-25T03:49:32;95120.53;;;7.19;70.99
29247;BME280;16272;48.188;9.964;2023-04-25T03:51:58;95122.03;;;7.49;70.74
29247;BME280;16272;48.188;9.964;2023-04-25T03:54:23;95123.34;;;6.80;71.86
29247;BME280;16272;48.188;9.964;2023-04-25T03:56:48;95127.06;;;6.97;71.89
29247;BME280;16272;48.188;9.964;2023-04-25T03:59:14;95116.19;;;7.00;72.58
29247;BME280;16272;48.188;9.964;2023-04-25T04:01:39;95124.00;;;6.92;72.68
29247;BME280;16272;48.188;9.964;2023-04-25T04:04:04;95117.22;;;7.17;72.37
29247;BME280;16272;48.188;9.964;2023-04-25T04:06:29;95124.75;;;7.12;72.88
29247;BME280;16272;48.188;9.964;2023-04-25T04:08:56;95132.81;;;7.10;72.05
29247;BME280;16272;48.188;9.964;2023-04-25T04:11:21;95136.72;;;7.06;72.60
29247;BME280;16272;48.188;9.964;2023-04-25T04:13:47;95137.22;;;7.20;72.50
29247;BME280;16272;48.188;9.964;2023-04-25T04:16:12;95143.38;;;7.10;72.11
29247;BME280;16272;48.188;9.964;2023-04-25T04:18:37;95144.34;;;7.09;72.58
29247;BME280;16272;48.188;9.964;2023-04-25T04:21:03;95149.06;;;7.15;72.96
29247;BME280;16272;48.188;9.964;2023-04-25T04:23:28;95142.13;;;6.77;73.65
29247;BME280;16272;48.188;9.964;2023-04-25T04:25:54;95142.44;;;7.02;72.10
29247;BME280;16272;48.188;9.964;2023-04-25T04:28:20;95144.00;;;6.94;71.25
29247;BME280;16272;48.188;9.964;2023-04-25T04:30:45;95143.19;;;6.94;72.17
29247;BME280;16272;48.188;9.964;2023-04-25T04:33:11;95142.78;;;6.89;72.55
29247;BME280;16272;48.188;9.964;2023-04-25T04:35:37;95139.16;;;6.90;71.36
29247;BME280;16272;48.188;9.964;2023-04-25T04:38:02;95139.06;;;6.81;72.40
29247;BME280;16272;48.188;9.964;2023-04-25T04:40:27;95142.78;;;6.89;72.39
29247;BME280;16272;48.188;9.964;2023-04-25T04:42:53;95137.28;;;7.00;71.93
29247;BME280;16272;48.188;9.964;2023-04-25T04:45:21;95143.72;;;6.97;71.83
29247;BME280;16272;48.188;9.964;2023-04-25T04:47:47;95132.78;;;6.92;71.76
29247;BME280;16272;48.188;9.964;2023-04-25T04:50:13;95137.66;;;6.87;72.88
29247;BME280;16272;48.188;9.964;2023-04-25T04:52:40;95142.19;;;6.95;72.39
29247;BME280;16272;48.188;9.964;2023-04-25T04:55:05;95137.69;;;6.77;72.33
29247;BME280;16272;48.188;9.964;2023-04-25T04:57:31;95142.00;;;6.69;73.58
29247;BME280;16272;48.188;9.964;2023-04-25T04:59:58;95147.03;;;6.99;72.58
29247;BME280;16272;48.188;9.964;2023-04-25T05:02:23;95146.56;;;6.76;72.88
29247;BME280;16272;48.188;9.964;2023-04-25T05:04:49;95142.00;;;7.06;72.57
29247;BME280;16272;48.188;9.964;2023-04-25T05:07:15;95142.78;;;7.16;70.78
29247;BME280;16272;48.188;9.964;2023-04-25T05:09:40;95139.94;;;7.28;70.63
29247;BME280;16272;48.188;9.964;2023-04-25T05:12:06;95153.53;;;7.15;70.41
29247;BME280;16272;48.188;9.964;2023-04-25T05:14:31;95146.09;;;6.91;71.19
29247;BME280;16272;48.188;9.964;2023-04-25T05:16:57;95153.09;;;7.10;70.82
29247;BME280;16272;48.188;9.964;2023-04-25T05:19:23;95141.50;;;6.93;70.60
29247;BME280;16272;48.188;9.964;2023-04-25T05:21:48;95136.53;;;6.90;71.65
29247;BME280;16272;48.188;9.964;2023-04-25T05:24:14;95137.91;;;6.94;70.26
29247;BME280;16272;48.188;9.964;2023-04-25T05:26:39;95134.63;;;7.10;70.15
29247;BME280;16272;48.188;9.964;2023-04-25T05:29:05;95134.66;;;7.00;70.63
29247;BME280;16272;48.188;9.964;2023-04-25T05:31:31;95122.25;;;7.10;70.69
29247;BME280;16272;48.188;9.964;2023-04-25T05:33:57;95126.47;;;7.49;69.39
29247;BME280;16272;48.188;9.964;2023-04-25T05:36:22;95133.41;;;7.32;69.95
29247;BME280;16272;48.188;9.964;2023-04-25T05:38:47;95124.31;;;7.80;69.03
29247;BME280;16272;48.188;9.964;2023-04-25T05:41:13;95128.06;;;8.32;69.16
29247;BME280;16272;48.188;9.964;2023-04-25T05:43:38;95122.63;;;8.15;69.16
29247;BME280;16272;48.188;9.964;2023-04-25T05:46:04;95120.44;;;8.81;67.02
29247;BME280;16272;48.188;9.964;2023-04-25T05:48:29;95123.78;;;7.95;68.12
29247;BME280;16272;48.188;9.964;2023-04-25T05:50:55;95131.38;;;8.16;69.03
29247;BME280;16272;48.188;9.964;2023-04-25T05:53:20;95122.66;;;8.59;65.94
29247;BME280;16272;48.188;9.964;2023-04-25T05:55:47;95124.84;;;8.46;67.64
29247;BME280;16272;48.188;9.964;2023-04-25T05:58:12;95121.94;;;8.13;67.01
29247;BME280;16272;48.188;9.964;2023-04-25T06:00:39;95120.56;;;8.45;67.71
29247;BME280;16272;48.188;9.964;2023-04-25T06:03:06;95118.00;;;8.88;67.07
29247;BME280;16272;48.188;9.964;2023-04-25T06:05:34;95118.53;;;8.99;64.49
29247;BME280;16272;48.188;9.964;2023-04-25T06:08:00;95126.53;;;8.47;66.80
29247;BME280;16272;48.188;9.964;2023-04-25T06:10:25;95120.66;;;8.17;68.48
29247;BME280;16272;48.188;9.964;2023-04-25T06:12:50;95120.56;;;8.71;66.96
29247;BME280;16272;48.188;9.964;2023-04-25T06:15:16;95121.59;;;8.34;69.31
29247;BME280;16272;48.188;9.964;2023-04-25T06:17:41;95125.41;;;8.32;67.94
29247;BME280;16272;48.188;9.964;2023-04-25T06:20:07;95117.59;;;8.48;66.26
29247;BME280;16272;48.188;9.964;2023-04-25T06:22:33;95123.56;;;8.76;66.63
29247;BME280;16272;48.188;9.964;2023-04-25T06:24:58;95124.47;;;8.93;66.29
29247;BME280;16272;48.188;9.964;2023-04-25T06:27:25;95125.81;;;8.97;67.44
29247;BME280;16272;48.188;9.964;2023-04-25T06:29:50;95116.22;;;8.96;67.02
29247;BME280;16272;48.188;9.964;2023-04-25T06:32:16;95114.72;;;9.36;68.24
29247;BME280;16272;48.188;9.964;2023-04-25T06:34:43;95113.44;;;9.57;66.13
29247;BME280;16272;48.188;9.964;2023-04-25T06:37:08;95108.41;;;9.37;66.58
29247;BME280;16272;48.188;9.964;2023-04-25T06:39:33;95110.44;;;9.52;66.77
29247;BME280;16272;48.188;9.964;2023-04-25T06:41:59;95098.91;;;9.94;64.53
29247;BME280;16272;48.188;9.964;2023-04-25T06:44:24;95101.69;;;9.60;63.68
29247;BME280;16272;48.188;9.964;2023-04-25T06:46:51;95098.06;;;9.77;62.44
29247;BME280;16272;48.188;9.964;2023-04-25T06:49:16;95096.59;;;9.74;62.35
29247;BME280;16272;48.188;9.964;2023-04-25T06:51:42;95100.88;;;9.84;64.15
29247;BME280;16272;48.188;9.964;2023-04-25T06:54:07;95091.47;;;10.06;62.19
29247;BME280;16272;48.188;9.964;2023-04-25T06:56:32;95096.59;;;10.07;63.95
29247;BME280;16272;48.188;9.964;2023-04-25T06:58:58;95086.16;;;10.14;61.01
29247;BME280;16272;48.188;9.964;2023-04-25T07:01:25;95095.63;;;10.08;61.99
29247;BME280;16272;48.188;9.964;2023-04-25T07:03:50;95095.97;;;10.38;60.95
29247;BME280;16272;48.188;9.964;2023-04-25T07:06:16;95099.56;;;9.96;60.74
29247;BME280;16272;48.188;9.964;2023-04-25T07:08:41;95097.75;;;9.88;63.58
29247;BME280;16272;48.188;9.964;2023-04-25T07:11:06;95098.75;;;10.04;62.26
29247;BME280;16272;48.188;9.964;2023-04-25T07:13:31;95093.59;;;10.60;60.22
29247;BME280;16272;48.188;9.964;2023-04-25T07:15:57;95093.28;;;10.46;59.63
29247;BME280;16272;48.188;9.964;2023-04-25T07:18:22;95093.44;;;11.49;60.52
29247;BME280;16272;48.188;9.964;2023-04-25T07:20:48;95093.19;;;10.88;62.94
29247;BME280;16272;48.188;9.964;2023-04-25T07:23:13;95092.78;;;11.15;61.31
29247;BME280;16272;48.188;9.964;2023-04-25T07:25:39;95095.75;;;11.20;61.97
29247;BME280;16272;48.188;9.964;2023-04-25T07:28:04;95094.81;;;10.97;60.43
29247;BME280;16272;48.188;9.964;2023-04-25T07:30:30;95085.69;;;11.39;58.63
29247;BME280;16272;48.188;9.964;2023-04-25T07:32:55;95085.22;;;12.13;55.87
29247;BME280;16272;48.188;9.964;2023-04-25T07:35:21;95090.84;;;11.64;60.75
29247;BME280;16272;48.188;9.964;2023-04-25T07:37:46;95092.41;;;11.27;56.62
29247;BME280;16272;48.188;9.964;2023-04-25T07:40:11;95084.25;;;11.59;61.22
29247;BME280;16272;48.188;9.964;2023-04-25T07:42:37;95086.13;;;11.74;59.43
29247;BME280;16272;48.188;9.964;2023-04-25T07:45:02;95102.72;;;11.21;57.07
29247;BME280;16272;48.188;9.964;2023-04-25T07:47:28;95092.44;;;11.18;56.82
29247;BME280;16272;48.188;9.964;2023-04-25T07:49:53;95099.84;;;11.63;57.80
29247;BME280;16272;48.188;9.964;2023-04-25T07:52:19;95091.38;;;11.82;56.08
29247;BME280;16272;48.188;9.964;2023-04-25T07:54:44;95097.28;;;11.77;52.93
29247;BME280;16272;48.188;9.964;2023-04-25T07:57:10;95101.19;;;11.58;54.07
29247;BME280;16272;48.188;9.964;2023-04-25T07:59:35;95105.69;;;11.27;53.76
29247;BME280;16272;48.188;9.964;2023-04-25T08:02:00;95104.41;;;11.14;56.19
29247;BME280;16272;48.188;9.964;2023-04-25T08:04:26;95102.72;;;11.53;58.11
29247;BME280;16272;48.188;9.964;2023-04-25T08:06:51;95111.63;;;11.37;56.92
29247;BME280;16272;48.188;9.964;2023-04-25T08:09:19;95112.13;;;11.64;55.26
29247;BME280;16272;48.188;9.964;2023-04-25T08:11:44;95116.34;;;11.18;53.74
29247;BME280;16272;48.188;9.964;2023-04-25T08:14:11;95116.31;;;11.27;55.96
29247;BME280;16272;48.188;9.964;2023-04-25T08:16:37;95120.28;;;11.31;58.06
29247;BME280;16272;48.188;9.964;2023-04-25T08:19:02;95122.31;;;11.20;57.97
29247;BME280;16272;48.188;9.964;2023-04-25T08:21:28;95117.34;;;11.80;54.19
29247;BME280;16272;48.188;9.964;2023-04-25T08:23:53;95118.72;;;11.45;53.31
29247;BME280;16272;48.188;9.964;2023-04-25T08:26:19;95127.00;;;11.10;54.08
29247;BME280;16272;48.188;9.964;2023-04-25T08:28:45;95119.41;;;10.99;54.46
29247;BME280;16272;48.188;9.964;2023-04-25T08:31:11;95123.72;;;10.92;54.38
29247;BME280;16272;48.188;9.964;2023-04-25T08:33:36;95127.53;;;11.06;56.49
29247;BME280;16272;48.188;9.964;2023-04-25T08:36:01;95132.41;;;11.33;56.01
29247;BME280;16272;48.188;9.964;2023-04-25T08:38:27;95118.69;;;11.05;52.27
29247;BME280;16272;48.188;9.964;2023-04-25T08:40:54;95129.94;;;11.24;52.92
29247;BME280;16272;48.188;9.964;2023-04-25T08:43:23;95122.94;;;11.31;53.84
29247;BME280;16272;48.188;9.964;2023-04-25T08:45:48;95136.59;;;11.19;53.14
29247;BME280;16272;48.188;9.964;2023-04-25T08:48:15;95137.22;;;10.57;54.49
29247;BME280;16272;48.188;9.964;2023-04-25T08:50:45;95146.34;;;10.79;55.21
29247;BME280;16272;48.188;9.964;2023-04-25T08:53:14;95146.41;;;10.38;58.42
29247;BME280;16272;48.188;9.964;2023-04-25T08:55:46;95149.84;;;10.55;58.73
29247;BME280;16272;48.188;9.964;2023-04-25T08:58:12;95156.81;;;10.73;58.28
29247;BME280;16272;48.188;9.964;2023-04-25T09:00:38;95153.63;;;10.94;57.56
29247;BME280;16272;48.188;9.964;2023-04-25T09:03:03;95157.59;;;10.90;57.76
29247;BME280;16272;48.188;9.964;2023-04-25T09:05:29;95156.84;;;10.48;60.11
29247;BME280;16272;48.188;9.964;2023-04-25T09:07:55;95160.13;;;10.83;55.91
29247;BME280;16272;48.188;9.964;2023-04-25T09:10:21;95156.22;;;11.18;53.73
29247;BME280;16272;48.188;9.964;2023-04-25T09:15:30;95158.88;;;11.18;53.63
29247;BME280;16272;48.188;9.964;2023-04-25T09:17:59;95173.22;;;10.93;53.52
29247;BME280;16272;48.188;9.964;2023-04-25T09:20:25;95166.00;;;11.18;53.32
29247;BME280;16272;48.188;9.964;2023-04-25T09:23:01;95171.31;;;11.18;54.30
29247;BME280;16272;48.188;9.964;2023-04-25T09:25:33;95180.84;;;11.04;55.12
29247;BME280;16272;48.188;9.964;2023-04-25T09:28:04;95177.84;;;10.99;54.38
29247;BME280;16272;48.188;9.964;2023-04-25T09:30:30;95180.47;;;11.15;57.07
29247;BME280;16272;48.188;9.964;2023-04-25T09:32:57;95178.31;;;11.58;56.12
29247;BME280;16272;48.188;9.964;2023-04-25T09:35:26;95185.19;;;11.84;54.09
29247;BME280;16272;48.188;9.964;2023-04-25T09:37:51;95193.34;;;11.43;55.30
29247;BME280;16272;48.188;9.964;2023-04-25T09:40:17;95206.44;;;10.64;59.09
29247;BME280;16272;48.188;9.964;2023-04-25T09:42:43;95216.16;;;9.55;61.88
29247;BME280;16272;48.188;9.964;2023-04-25T09:45:12;95223.72;;;8.81;64.07
29247;BME280;16272;48.188;9.964;2023-04-25T09:47:38;95242.78;;;8.31;66.73
29247;BME280;16272;48.188;9.964;2023-04-25T09:50:14;95243.53;;;8.41;68.83
29247;BME280;16272;48.188;9.964;2023-04-25T09:52:40;95244.25;;;8.61;68.48
29247;BME280;16272;48.188;9.964;2023-04-25T09:55:05;95253.38;;;8.31;70.60
29247;BME280;16272;48.188;9.964;2023-04-25T09:57:31;95261.75;;;8.08;71.49
29247;BME280;16272;48.188;9.964;2023-04-25T09:59:56;95260.41;;;8.22;72.81
29247;BME280;16272;48.188;9.964;2023-04-25T10:02:26;95261.88;;;8.06;72.05
29247;BME280;16272;48.188;9.964;2023-04-25T10:04:53;95269.50;;;7.64;72.82
29247;BME280;16272;48.188;9.964;2023-04-25T10:07:22;95270.28;;;8.02;73.23
29247;BME280;16272;48.188;9.964;2023-04-25T10:09:55;95260.34;;;8.32;73.22
29247;BME280;16272;48.188;9.964;2023-04-25T10:12:24;95263.44;;;8.81;69.92
29247;BME280;16272;48.188;9.964;2023-04-25T10:14:50;95271.81;;;8.22;72.07
29247;BME280;16272;48.188;9.964;2023-04-25T10:17:16;95261.78;;;8.44;73.47
29247;BME280;16272;48.188;9.964;2023-04-25T10:19:43;95275.34;;;8.31;73.12
29247;BME280;16272;48.188;9.964;2023-04-25T10:22:17;95270.84;;;8.41;72.53
29247;BME280;16272;48.188;9.964;2023-04-25T10:24:43;95280.97;;;7.54;73.37
29247;BME280;16272;48.188;9.964;2023-04-25T10:27:09;95271.25;;;8.64;72.85
29247;BME280;16272;48.188;9.964;2023-04-25T10:29:36;95271.44;;;8.89;71.86
29247;BME280;16272;48.188;9.964;2023-04-25T10:32:01;95281.91;;;8.55;72.44
29247;BME280;16272;48.188;9.964;2023-04-25T10:34:43;95279.22;;;8.37;72.60
29247;BME280;16272;48.188;9.964;2023-04-25T10:37:12;95284.41;;;8.56;72.63
29247;BME280;16272;48.188;9.964;2023-04-25T10:39:39;95284.28;;;8.30;72.76
29247;BME280;16272;48.188;9.964;2023-04-25T10:42:06;95276.31;;;8.76;71.59
29247;BME280;16272;48.188;9.964;2023-04-25T10:44:32;95290.53;;;8.11;71.83
29247;BME280;16272;48.188;9.964;2023-04-25T10:47:02;95294.03;;;8.29;72.27
29247;BME280;16272;48.188;9.964;2023-04-25T10:52:26;95300.66;;;8.43;72.68
29247;BME280;16272;48.188;9.964;2023-04-25T10:54:55;95308.34;;;7.91;72.52
29247;BME280;16272;48.188;9.964;2023-04-25T11:02:30;95303.09;;;8.09;73.36
29247;BME280;16272;48.188;9.964;2023-04-25T11:04:56;95305.28;;;8.59;72.79
29247;BME280;16272;48.188;9.964;2023-04-25T11:07:54;95303.16;;;8.45;72.62
29247;BME280;16272;48.188;9.964;2023-04-25T11:10:33;95302.66;;;8.32;72.41
29247;BME280;16272;48.188;9.964;2023-04-25T11:13:02;95306.69;;;8.72;72.72
29247;BME280;16272;48.188;9.964;2023-04-25T11:15:27;95308.03;;;8.40;72.56
29247;BME280;16272;48.188;9.964;2023-04-25T11:17:53;95308.44;;;7.99;73.58
29247;BME280;16272;48.188;9.964;2023-04-25T11:20:19;95302.91;;;7.93;74.94
29247;BME280;16272;48.188;9.964;2023-04-25T11:22:46;95313.19;;;7.96;74.33
29247;BME280;16272;48.188;9.964;2023-04-25T11:25:13;95309.06;;;8.29;73.91
29247;BME280;16272;48.188;9.964;2023-04-25T11:27:51;95310.69;;;8.40;72.39
29247;BME280;16272;48.188;9.964;2023-04-25T11:30:17;95314.28;;;8.49;73.26
29247;BME280;16272;48.188;9.964;2023-04-25T11:32:42;95317.22;;;8.45;71.46
29247;BME280;16272;48.188;9.964;2023-04-25T11:35:09;95311.31;;;8.70;70.51
29247;BME280;16272;48.188;9.964;2023-04-25T11:37:34;95307.28;;;8.83;71.76
29247;BME280;16272;48.188;9.964;2023-04-25T11:40:00;95323.78;;;8.41;71.90
29247;BME280;16272;48.188;9.964;2023-04-25T11:42:26;95322.91;;;8.41;70.41
29247;BME280;16272;48.188;9.964;2023-04-25T11:44:51;95319.03;;;8.45;70.93
29247;BME280;16272;48.188;9.964;2023-04-25T11:47:17;95314.34;;;8.75;69.48
29247;BME280;16272;48.188;9.964;2023-04-25T11:49:42;95316.16;;;8.92;70.07
29247;BME280;16272;48.188;9.964;2023-04-25T11:52:07;95328.97;;;8.79;69.30
29247;BME280;16272;48.188;9.964;2023-04-25T11:54:36;95335.06;;;8.43;71.56
29247;BME280;16272;48.188;9.964;2023-04-25T11:57:02;95335.66;;;8.55;69.09
29247;BME280;16272;48.188;9.964;2023-04-25T11:59:28;95335.00;;;8.71;69.48
29247;BME280;16272;48.188;9.964;2023-04-25T12:01:53;95339.09;;;8.38;68.92
29247;BME280;16272;48.188;9.964;2023-04-25T12:04:23;95348.91;;;8.55;69.92
29247;BME280;16272;48.188;9.964;2023-04-25T12:06:51;95345.53;;;8.81;67.47
29247;BME280;16272;48.188;9.964;2023-04-25T12:09:27;95344.00;;;8.33;69.92
29247;BME280;16272;48.188;9.964;2023-04-25T12:11:55;95353.59;;;8.61;70.35
29247;BME280;16272;48.188;9.964;2023-04-25T12:14:25;95346.19;;;8.65;71.38
29247;BME280;16272;48.188;9.964;2023-04-25T12:16:51;95355.00;;;8.10;71.38
29247;BME280;16272;48.188;9.964;2023-04-25T12:19:20;95360.38;;;8.46;71.29
29247;BME280;16272;48.188;9.964;2023-04-25T12:21:46;95364.97;;;7.88;73.29
29247;BME280;16272;48.188;9.964;2023-04-25T12:24:23;95370.00;;;7.82;73.04
29247;BME280;16272;48.188;9.964;2023-04-25T12:27:04;95364.75;;;7.72;74.01
29247;BME280;16272;48.188;9.964;2023-04-25T12:29:33;95372.06;;;7.50;74.71
29247;BME280;16272;48.188;9.964;2023-04-25T12:31:58;95377.34;;;7.50;74.97
29247;BME280;16272;48.188;9.964;2023-04-25T12:34:24;95380.78;;;7.13;76.03
29247;BME280;16272;48.188;9.964;2023-04-25T12:36:50;95379.59;;;7.35;74.21
29247;BME280;16272;48.188;9.964;2023-04-25T12:39:17;95380.78;;;7.13;73.38
29247;BME280;16272;48.188;9.964;2023-04-25T12:41:44;95391.47;;;7.12;74.62
29247;BME280;16272;48.188;9.964;2023-04-25T12:44:09;95391.31;;;7.33;74.74
29247;BME280;16272;48.188;9.964;2023-04-25T12:46:36;95394.66;;;7.06;74.18
29247;BME280;16272;48.188;9.964;2023-04-25T12:49:01;95393.25;;;7.21;73.78
29247;BME280;16272;48.188;9.964;2023-04-25T12:51:28;95402.94;;;7.60;73.59
29247;BME280;16272;48.188;9.964;2023-04-25T12:53:53;95404.78;;;7.49;73.24
29247;BME280;16272;48.188;9.964;2023-04-25T12:56:19;95404.69;;;7.69;73.18
29247;BME280;16272;48.188;9.964;2023-04-25T12:58:45;95406.19;;;7.81;72.89
29247;BME280;16272;48.188;9.964;2023-04-25T13:01:10;95414.09;;;7.91;72.51
29247;BME280;16272;48.188;9.964;2023-04-25T13:03:37;95413.59;;;7.78;73.07
29247;BME280;16272;48.188;9.964;2023-04-25T13:06:03;95412.56;;;8.26;71.76
29247;BME280;16272;48.188;9.964;2023-04-25T13:08:28;95415.38;;;7.77;71.68
29247;BME280;16272;48.188;9.964;2023-04-25T13:10:53;95411.13;;;8.04;72.03
29247;BME280;16272;48.188;9.964;2023-04-25T13:13:18;95413.69;;;7.96;73.73
29247;BME280;16272;48.188;9.964;2023-04-25T13:15:44;95411.78;;;7.78;71.79